createdAt,value
2018-09-16T00:00:47.590Z,0.00
2018-09-16T00:01:53.812Z,0.00
2018-09-16T00:02:59.492Z,0.00
2018-09-16T00:04:06.300Z,0.00
2018-09-16T00:05:12.408Z,0.00
2018-09-16T00:06:18.128Z,0.00
2018-09-16T00:07:24.842Z,0.00
2018-09-16T00:08:31.036Z,0.00
2018-09-16T00:09:37.290Z,0.00
2018-09-16T00:10:43.431Z,0.00
2018-09-16T00:11:49.151Z,0.00
2018-09-16T00:12:55.866Z,0.00
2018-09-16T00:14:02.053Z,0.00
2018-09-16T00:15:08.252Z,0.00
2018-09-16T00:16:14.455Z,0.00
2018-09-16T00:17:20.677Z,0.00
2018-09-16T00:18:26.880Z,0.00
2018-09-16T00:19:33.071Z,0.00
2018-09-16T00:20:39.302Z,0.00
2018-09-16T00:21:45.465Z,0.00
2018-09-16T00:22:51.298Z,0.00
2018-09-16T00:23:57.875Z,0.00
2018-09-16T00:25:04.071Z,0.00
2018-09-16T00:26:10.283Z,0.00
2018-09-16T00:27:15.977Z,0.00
2018-09-16T00:28:22.687Z,0.00
2018-09-16T00:29:28.363Z,0.00
2018-09-16T00:30:35.057Z,0.00
2018-09-16T00:31:41.279Z,0.00
2018-09-16T00:32:47.459Z,0.00
2018-09-16T00:33:53.640Z,0.00
2018-09-16T00:35:00.826Z,0.00
2018-09-16T00:36:05.537Z,0.00
2018-09-16T00:37:11.729Z,0.00
2018-09-16T00:38:18.409Z,0.00
2018-09-16T00:39:24.611Z,0.00
2018-09-16T00:40:30.303Z,0.00
2018-09-16T00:41:36.996Z,0.00
2018-09-16T00:42:43.290Z,0.00
2018-09-16T00:43:49.375Z,0.00
2018-09-16T00:44:55.571Z,0.00
2018-09-16T00:46:01.751Z,0.00
2018-09-16T00:47:07.948Z,0.00
2018-09-16T00:48:14.155Z,0.00
2018-09-16T00:49:20.331Z,0.00
2018-09-16T00:50:26.528Z,0.00
2018-09-16T00:51:32.708Z,0.00
2018-09-16T00:52:38.421Z,0.00
2018-09-16T00:53:44.604Z,0.00
2018-09-16T00:54:51.290Z,0.00
2018-09-16T00:55:57.489Z,0.00
2018-09-16T00:57:03.662Z,0.00
2018-09-16T00:58:09.359Z,0.00
2018-09-16T00:59:15.538Z,0.00
2018-09-16T01:00:22.224Z,0.00
2018-09-16T01:01:28.429Z,0.00
2018-09-16T01:02:34.601Z,0.00
2018-09-16T01:03:40.780Z,0.00
2018-09-16T01:04:46.477Z,0.00
2018-09-16T01:05:52.660Z,0.00
2018-09-16T01:06:59.350Z,0.00
2018-09-16T01:08:05.044Z,0.00
2018-09-16T01:09:11.219Z,0.00
2018-09-16T01:10:17.399Z,0.00
2018-09-16T01:11:23.575Z,0.00
2018-09-16T01:12:29.759Z,0.00
2018-09-16T01:13:36.461Z,0.00
2018-09-16T01:14:42.648Z,0.00
2018-09-16T01:15:48.310Z,0.00
2018-09-16T01:16:54.986Z,0.00
2018-09-16T01:18:00.678Z,0.00
2018-09-16T01:19:07.361Z,0.00
2018-09-16T01:20:13.535Z,0.00
2018-09-16T01:21:19.724Z,0.00
2018-09-16T01:22:25.905Z,0.00
2018-09-16T01:23:31.587Z,0.00
2018-09-16T01:24:37.768Z,0.00
2018-09-16T01:25:44.433Z,0.00
2018-09-16T01:26:50.620Z,0.00
2018-09-16T01:27:56.297Z,0.00
2018-09-16T01:29:02.987Z,0.00
2018-09-16T01:30:08.652Z,0.00
2018-09-16T01:31:14.841Z,0.00
2018-09-16T01:32:21.503Z,0.00
2018-09-16T01:33:27.697Z,0.00
2018-09-16T01:34:33.370Z,0.00
2018-09-16T01:35:39.547Z,0.00
2018-09-16T01:36:45.727Z,0.00
2018-09-16T01:37:51.904Z,0.00
2018-09-16T01:38:58.581Z,0.00
2018-09-16T01:40:04.759Z,0.00
2018-09-16T01:41:10.926Z,0.00
2018-09-16T01:42:17.100Z,0.00
2018-09-16T01:43:26.227Z,0.00
2018-09-16T01:44:29.463Z,0.00
2018-09-16T01:45:35.139Z,0.00
2018-09-16T01:46:41.813Z,0.00
2018-09-16T01:47:47.973Z,0.00
2018-09-16T01:48:53.680Z,0.00
2018-09-16T01:50:00.325Z,0.00
2018-09-16T01:51:06.011Z,0.00
2018-09-16T01:52:12.671Z,0.00
2018-09-16T01:53:18.861Z,0.00
2018-09-16T01:54:25.048Z,0.00
2018-09-16T01:55:31.192Z,0.00
2018-09-16T01:56:36.873Z,0.00
2018-09-16T01:57:43.543Z,0.00
2018-09-16T01:58:49.228Z,0.00
2018-09-16T01:59:55.904Z,0.00
2018-09-16T02:01:02.067Z,0.00
2018-09-16T02:02:08.275Z,0.00
2018-09-16T02:03:13.916Z,0.00
2018-09-16T02:04:20.112Z,0.00
2018-09-16T02:05:26.261Z,0.00
2018-09-16T02:06:32.433Z,0.00
2018-09-16T02:07:38.587Z,0.00
2018-09-16T02:08:44.765Z,0.00
2018-09-16T02:09:51.436Z,0.00
2018-09-16T02:10:57.587Z,0.00
2018-09-16T02:12:03.267Z,0.00
2018-09-16T02:13:09.936Z,0.00
2018-09-16T02:14:15.613Z,0.00
2018-09-16T02:15:21.791Z,0.00
2018-09-16T02:16:28.434Z,0.00
2018-09-16T02:17:34.621Z,0.00
2018-09-16T02:18:40.797Z,0.00
2018-09-16T02:19:46.964Z,0.00
2018-09-16T02:20:52.635Z,0.00
2018-09-16T02:21:58.800Z,0.00
2018-09-16T02:23:04.975Z,0.00
2018-09-16T02:24:11.641Z,0.00
2018-09-16T02:25:17.313Z,0.00
2018-09-16T02:26:23.462Z,0.00
2018-09-16T02:27:29.639Z,0.00
2018-09-16T02:28:36.360Z,0.00
2018-09-16T02:29:41.984Z,0.00
2018-09-16T02:30:48.143Z,0.00
2018-09-16T02:31:54.293Z,0.00
2018-09-16T02:33:00.971Z,0.00
2018-09-16T02:34:07.092Z,0.00
2018-09-16T02:35:13.303Z,0.00
2018-09-16T02:36:18.956Z,0.00
2018-09-16T02:37:25.319Z,0.00
2018-09-16T02:38:32.787Z,0.00
2018-09-16T02:39:37.949Z,0.00
2018-09-16T02:40:43.619Z,0.00
2018-09-16T02:41:50.279Z,0.00
2018-09-16T02:42:55.941Z,0.00
2018-09-16T02:44:02.623Z,0.00
2018-09-16T02:45:08.274Z,0.00
2018-09-16T02:46:14.425Z,0.00
2018-09-16T02:47:21.081Z,0.00
2018-09-16T02:48:27.239Z,0.00
2018-09-16T02:49:33.412Z,0.00
2018-09-16T02:50:39.101Z,0.00
2018-09-16T02:51:45.236Z,0.00
2018-09-16T02:52:51.896Z,0.00
2018-09-16T02:53:58.051Z,0.00
2018-09-16T02:55:03.727Z,0.00
2018-09-16T02:56:09.880Z,0.00
2018-09-16T02:57:16.519Z,0.00
2018-09-16T02:58:22.292Z,0.00
2018-09-16T02:59:28.834Z,0.00
2018-09-16T03:00:35.070Z,0.00
2018-09-16T03:01:42.157Z,0.00
2018-09-16T03:02:47.325Z,0.00
2018-09-16T03:03:53.506Z,0.00
2018-09-16T03:04:59.667Z,0.00
2018-09-16T03:06:05.825Z,0.00
2018-09-16T03:07:11.979Z,0.00
2018-09-16T03:08:18.135Z,0.00
2018-09-16T03:09:24.325Z,0.00
2018-09-16T03:10:30.471Z,0.00
2018-09-16T03:11:36.692Z,0.00
2018-09-16T03:12:42.760Z,0.00
2018-09-16T03:13:48.943Z,0.00
2018-09-16T03:14:55.100Z,0.00
2018-09-16T03:16:01.260Z,0.00
2018-09-16T03:17:06.950Z,0.00
2018-09-16T03:18:13.080Z,0.00
2018-09-16T03:19:19.734Z,0.00
2018-09-16T03:20:25.892Z,0.00
2018-09-16T03:21:32.033Z,0.00
2018-09-16T03:22:38.280Z,0.00
2018-09-16T03:23:43.856Z,0.00
2018-09-16T03:24:50.014Z,0.00
2018-09-16T03:25:56.665Z,0.00
2018-09-16T03:27:02.814Z,0.00
2018-09-16T03:28:08.997Z,0.00
2018-09-16T03:29:15.130Z,0.00
2018-09-16T03:30:21.273Z,0.00
2018-09-16T03:31:26.951Z,0.00
2018-09-16T03:32:33.584Z,0.00
2018-09-16T03:33:39.266Z,0.00
2018-09-16T03:34:45.908Z,0.00
2018-09-16T03:35:52.055Z,0.00
2018-09-16T03:36:58.283Z,0.00
2018-09-16T03:38:04.357Z,0.00
2018-09-16T03:39:10.512Z,0.00
2018-09-16T03:40:16.671Z,0.00
2018-09-16T03:41:22.803Z,0.00
2018-09-16T03:42:29.961Z,0.00
2018-09-16T03:43:35.148Z,0.00
2018-09-16T03:44:41.268Z,0.00
2018-09-16T03:45:46.921Z,0.00
2018-09-16T03:46:53.651Z,0.00
2018-09-16T03:47:59.728Z,0.00
2018-09-16T03:49:05.870Z,0.00
2018-09-16T03:50:12.023Z,0.00
2018-09-16T03:51:18.284Z,0.00
2018-09-16T03:52:23.824Z,0.00
2018-09-16T03:53:30.479Z,0.00
2018-09-16T03:54:36.620Z,0.00
2018-09-16T03:55:42.771Z,0.00
2018-09-16T03:56:48.439Z,0.00
2018-09-16T03:57:55.082Z,0.00
2018-09-16T03:59:01.224Z,0.00
2018-09-16T04:00:06.885Z,0.00
2018-09-16T04:01:13.504Z,0.00
2018-09-16T04:02:19.670Z,0.00
2018-09-16T04:03:25.315Z,0.00
2018-09-16T04:04:31.941Z,0.00
2018-09-16T04:05:38.098Z,0.00
2018-09-16T04:06:44.335Z,0.00
2018-09-16T04:07:50.393Z,0.00
2018-09-16T04:08:56.531Z,0.00
2018-09-16T04:10:02.688Z,0.00
2018-09-16T04:11:08.824Z,0.00
2018-09-16T04:12:14.974Z,0.00
2018-09-16T04:13:21.118Z,0.00
2018-09-16T04:14:27.257Z,0.00
2018-09-16T04:15:33.410Z,0.00
2018-09-16T04:16:39.051Z,0.00
2018-09-16T04:17:45.699Z,0.00
2018-09-16T04:18:51.331Z,0.00
2018-09-16T04:19:57.966Z,0.00
2018-09-16T04:21:04.148Z,0.00
2018-09-16T04:22:10.284Z,0.00
2018-09-16T04:23:16.413Z,0.00
2018-09-16T04:24:22.546Z,0.00
2018-09-16T04:25:28.700Z,0.00
2018-09-16T04:26:34.845Z,0.00
2018-09-16T04:27:40.998Z,0.00
2018-09-16T04:28:46.637Z,0.00
2018-09-16T04:29:52.780Z,0.00
2018-09-16T04:30:59.422Z,0.00
2018-09-16T04:32:05.073Z,4.00
2018-09-16T04:33:11.705Z,4.00
2018-09-16T04:34:17.857Z,0.00
2018-09-16T04:35:23.997Z,4.00
2018-09-16T04:36:29.636Z,4.00
2018-09-16T04:37:36.325Z,4.00
2018-09-16T04:38:42.414Z,8.00
2018-09-16T04:39:48.070Z,12.00
2018-09-16T04:40:54.219Z,12.00
2018-09-16T04:42:00.855Z,16.00
2018-09-16T04:43:06.504Z,16.00
2018-09-16T04:44:12.640Z,20.00
2018-09-16T04:45:18.786Z,24.00
2018-09-16T04:46:25.433Z,28.00
2018-09-16T04:47:31.577Z,36.00
2018-09-16T04:48:37.206Z,44.00
2018-09-16T04:49:43.396Z,52.00
2018-09-16T04:50:49.985Z,64.00
2018-09-16T04:51:56.118Z,76.00
2018-09-16T04:53:02.302Z,88.00
2018-09-16T04:54:07.900Z,104.00
2018-09-16T04:55:14.544Z,120.00
2018-09-16T04:56:20.665Z,140.00
2018-09-16T04:57:26.325Z,160.00
2018-09-16T04:58:32.964Z,176.00
2018-09-16T04:59:39.097Z,196.00
2018-09-16T05:00:45.226Z,220.00
2018-09-16T05:01:50.886Z,236.00
2018-09-16T05:02:57.524Z,260.00
2018-09-16T05:04:03.663Z,288.00
2018-09-16T05:05:09.296Z,312.00
2018-09-16T05:06:15.934Z,340.00
2018-09-16T05:07:21.594Z,368.00
2018-09-16T05:08:28.288Z,396.00
2018-09-16T05:09:34.352Z,424.00
2018-09-16T05:10:40.501Z,456.00
2018-09-16T05:11:46.633Z,492.00
2018-09-16T05:12:52.766Z,536.00
2018-09-16T05:13:58.512Z,576.00
2018-09-16T05:15:05.040Z,620.00
2018-09-16T05:16:11.199Z,664.00
2018-09-16T05:17:17.336Z,712.00
2018-09-16T05:18:22.976Z,764.00
2018-09-16T05:19:29.598Z,820.00
2018-09-16T05:20:35.246Z,864.00
2018-09-16T05:21:41.882Z,908.00
2018-09-16T05:22:48.015Z,952.00
2018-09-16T05:23:54.285Z,996.00
2018-09-16T05:24:59.811Z,1036.00
2018-09-16T05:26:05.943Z,1076.00
2018-09-16T05:27:12.569Z,1116.00
2018-09-16T05:28:19.712Z,1160.00
2018-09-16T05:29:24.872Z,1204.00
2018-09-16T05:30:31.014Z,1260.00
2018-09-16T05:31:37.151Z,1312.00
2018-09-16T05:32:43.326Z,1368.00
2018-09-16T05:33:49.438Z,1416.00
2018-09-16T05:34:55.567Z,1476.00
2018-09-16T05:36:01.216Z,1532.00
2018-09-16T05:37:07.849Z,1596.00
2018-09-16T05:38:13.497Z,1660.00
2018-09-16T05:39:19.656Z,1716.00
2018-09-16T05:40:26.288Z,1760.00
2018-09-16T05:41:31.919Z,1808.00
2018-09-16T05:42:38.576Z,1860.00
2018-09-16T05:43:44.729Z,1916.00
2018-09-16T05:44:50.865Z,1976.00
2018-09-16T05:45:57.011Z,2008.00
2018-09-16T05:47:03.155Z,2028.00
2018-09-16T05:48:08.800Z,2056.00
2018-09-16T05:49:15.455Z,2088.00
2018-09-16T05:50:21.600Z,2136.00
2018-09-16T05:51:27.753Z,2188.00
2018-09-16T05:52:33.393Z,2232.00
2018-09-16T05:53:40.046Z,2268.00
2018-09-16T05:54:46.207Z,2288.00
2018-09-16T05:55:52.344Z,2316.00
2018-09-16T05:56:58.012Z,2344.00
2018-09-16T05:58:04.650Z,2372.00
2018-09-16T05:59:10.350Z,2392.00
2018-09-16T06:00:16.969Z,2416.00
2018-09-16T06:01:22.616Z,2440.00
2018-09-16T06:02:29.275Z,2472.00
2018-09-16T06:03:35.429Z,2508.00
2018-09-16T06:04:41.948Z,2544.00
2018-09-16T06:05:47.741Z,2576.00
2018-09-16T06:06:53.886Z,2608.00
2018-09-16T06:07:59.566Z,2620.00
2018-09-16T06:09:05.721Z,2632.00
2018-09-16T06:10:11.885Z,2640.00
2018-09-16T06:11:18.539Z,2644.00
2018-09-16T06:12:24.715Z,2660.00
2018-09-16T06:13:30.870Z,2676.00
2018-09-16T06:14:37.032Z,2688.00
2018-09-16T06:15:42.710Z,2704.00
2018-09-16T06:16:48.859Z,2720.00
2018-09-16T06:17:55.520Z,2728.00
2018-09-16T06:19:01.187Z,2740.00
2018-09-16T06:20:07.871Z,2748.00
2018-09-16T06:21:14.028Z,2760.00
2018-09-16T06:22:20.290Z,2764.00
2018-09-16T06:23:25.864Z,2776.00
2018-09-16T06:24:32.514Z,2804.00
2018-09-16T06:25:38.688Z,2820.00
2018-09-16T06:26:44.371Z,2852.00
2018-09-16T06:27:51.038Z,2880.00
2018-09-16T06:28:56.708Z,2896.00
2018-09-16T06:30:03.397Z,2916.00
2018-09-16T06:31:09.563Z,2936.00
2018-09-16T06:32:15.237Z,2956.00
2018-09-16T06:33:21.910Z,2980.00
2018-09-16T06:34:28.093Z,3000.00
2018-09-16T06:35:34.280Z,3008.00
2018-09-16T06:36:39.951Z,3020.00
2018-09-16T06:37:46.637Z,3024.00
2018-09-16T06:38:52.808Z,3028.00
2018-09-16T06:39:59.032Z,3040.00
2018-09-16T06:41:04.690Z,3060.00
2018-09-16T06:42:11.363Z,3088.00
2018-09-16T06:43:17.566Z,3116.00
2018-09-16T06:44:23.239Z,3128.00
2018-09-16T06:45:29.429Z,3140.00
2018-09-16T06:46:35.623Z,3152.00
2018-09-16T06:47:41.807Z,3164.00
2018-09-16T06:48:48.496Z,3180.00
2018-09-16T06:49:54.693Z,3196.00
2018-09-16T06:51:00.972Z,3204.00
2018-09-16T06:52:07.089Z,3216.00
2018-09-16T06:53:13.279Z,3228.00
2018-09-16T06:54:19.488Z,3240.00
2018-09-16T06:55:25.684Z,3256.00
2018-09-16T06:56:31.916Z,3256.00
2018-09-16T06:57:38.093Z,3264.00
2018-09-16T06:58:44.302Z,3280.00
2018-09-16T06:59:50.512Z,3292.00
2018-09-16T07:00:57.782Z,3304.00
2018-09-16T07:02:02.933Z,3320.00
2018-09-16T07:03:09.136Z,3328.00
2018-09-16T07:04:15.358Z,3340.00
2018-09-16T07:05:21.567Z,3348.00
2018-09-16T07:06:27.796Z,3356.00
2018-09-16T07:07:34.024Z,3372.00
2018-09-16T07:08:39.726Z,3384.00
2018-09-16T07:09:45.953Z,3392.00
2018-09-16T07:10:52.676Z,3396.00
2018-09-16T07:11:59.404Z,3404.00
2018-09-16T07:13:05.107Z,3392.00
2018-09-16T07:14:11.360Z,3400.00
2018-09-16T07:15:17.589Z,3412.00
2018-09-16T07:16:23.318Z,3460.00
2018-09-16T07:17:30.050Z,3472.00
2018-09-16T07:18:36.334Z,3484.00
2018-09-16T07:19:42.527Z,3488.00
2018-09-16T07:20:48.767Z,3500.00
2018-09-16T07:21:54.520Z,3504.00
2018-09-16T07:23:00.760Z,3512.00
2018-09-16T07:24:07.493Z,3508.00
2018-09-16T07:25:14.741Z,3520.00
2018-09-16T07:26:19.992Z,3560.00
2018-09-16T07:27:26.336Z,3580.00
2018-09-16T07:28:32.016Z,3596.00
2018-09-16T07:29:38.769Z,3608.00
2018-09-16T07:30:45.025Z,3620.00
2018-09-16T07:31:51.285Z,3636.00
2018-09-16T07:32:57.054Z,3644.00
2018-09-16T07:34:03.831Z,3656.00
2018-09-16T07:35:10.053Z,3672.00
2018-09-16T07:36:16.338Z,3680.00
2018-09-16T07:37:22.610Z,3688.00
2018-09-16T07:38:28.856Z,3692.00
2018-09-16T07:39:35.144Z,3684.00
2018-09-16T07:40:41.420Z,3664.00
2018-09-16T07:41:47.702Z,3652.00
2018-09-16T07:42:53.971Z,3644.00
2018-09-16T07:44:00.281Z,3652.00
2018-09-16T07:45:06.531Z,3656.00
2018-09-16T07:46:12.299Z,3668.00
2018-09-16T07:47:19.156Z,3676.00
2018-09-16T07:48:24.866Z,3692.00
2018-09-16T07:49:31.655Z,3708.00
2018-09-16T07:50:37.443Z,3724.00
2018-09-16T07:51:44.367Z,3740.00
2018-09-16T07:52:50.085Z,3740.00
2018-09-16T07:53:56.317Z,3692.00
2018-09-16T07:55:03.114Z,3700.00
2018-09-16T07:56:08.917Z,3740.00
2018-09-16T07:57:15.701Z,3756.00
2018-09-16T07:58:22.024Z,3788.00
2018-09-16T07:59:28.318Z,3836.00
2018-09-16T08:00:34.647Z,3864.00
2018-09-16T08:01:40.945Z,3868.00
2018-09-16T08:02:46.758Z,3884.00
2018-09-16T08:03:53.570Z,3892.00
2018-09-16T08:04:59.889Z,3900.00
2018-09-16T08:06:05.738Z,3908.00
2018-09-16T08:07:12.531Z,3920.00
2018-09-16T08:08:18.865Z,3928.00
2018-09-16T08:09:25.196Z,3940.00
2018-09-16T08:10:31.032Z,3944.00
2018-09-16T08:11:37.362Z,3956.00
2018-09-16T08:12:44.276Z,3960.00
2018-09-16T08:13:50.617Z,3976.00
2018-09-16T08:14:56.891Z,3992.00
2018-09-16T08:16:02.747Z,4008.00
2018-09-16T08:17:09.100Z,4016.00
2018-09-16T08:18:15.466Z,4004.00
2018-09-16T08:19:22.306Z,4028.00
2018-09-16T08:20:28.658Z,4036.00
2018-09-16T08:21:34.524Z,4052.00
2018-09-16T08:22:40.900Z,4060.00
2018-09-16T08:23:47.269Z,4072.00
2018-09-16T08:24:54.133Z,4088.00
2018-09-16T08:26:00.012Z,4108.00
2018-09-16T08:27:06.878Z,4120.00
2018-09-16T08:28:12.817Z,4128.00
2018-09-16T08:29:19.291Z,4148.00
2018-09-16T08:30:25.995Z,4160.00
2018-09-16T08:31:32.381Z,4176.00
2018-09-16T08:32:38.273Z,4196.00
2018-09-16T08:33:44.656Z,4220.00
2018-09-16T08:34:51.577Z,4248.00
2018-09-16T08:35:57.916Z,4276.00
2018-09-16T08:37:04.302Z,4308.00
2018-09-16T08:38:10.700Z,4336.00
2018-09-16T08:39:16.619Z,4364.00
2018-09-16T08:40:23.495Z,4388.00
2018-09-16T08:41:29.880Z,4428.00
2018-09-16T08:42:35.781Z,4460.00
2018-09-16T08:43:42.693Z,4500.00
2018-09-16T08:44:48.599Z,4544.00
2018-09-16T08:45:55.489Z,4576.00
2018-09-16T08:47:01.390Z,4616.00
2018-09-16T08:48:08.296Z,4632.00
2018-09-16T08:49:14.307Z,4820.00
2018-09-16T08:50:20.630Z,5060.00
2018-09-16T08:51:27.033Z,5312.00
2018-09-16T08:52:33.944Z,5452.00
2018-09-16T08:53:39.864Z,5404.00
2018-09-16T08:54:46.769Z,5364.00
2018-09-16T08:55:53.187Z,5316.00
2018-09-16T08:56:59.132Z,5304.00
2018-09-16T08:58:06.393Z,5320.00
2018-09-16T08:59:11.967Z,5320.00
2018-09-16T09:00:18.391Z,5372.00
2018-09-16T09:01:25.320Z,5340.00
2018-09-16T09:02:31.754Z,5320.00
2018-09-16T09:03:38.280Z,5368.00
2018-09-16T09:04:44.148Z,5396.00
2018-09-16T09:05:51.080Z,5416.00
2018-09-16T09:06:57.050Z,5376.00
2018-09-16T09:08:03.481Z,5284.00
2018-09-16T09:09:09.932Z,5184.00
2018-09-16T09:10:16.378Z,5084.00
2018-09-16T09:11:22.828Z,5064.00
2018-09-16T09:12:29.786Z,5016.00
2018-09-16T09:13:35.741Z,4996.00
2018-09-16T09:14:42.198Z,4960.00
2018-09-16T09:15:48.675Z,4964.00
2018-09-16T09:16:55.619Z,4952.00
2018-09-16T09:18:02.079Z,4968.00
2018-09-16T09:19:08.028Z,5000.00
2018-09-16T09:20:14.514Z,5040.00
2018-09-16T09:21:21.463Z,5084.00
2018-09-16T09:22:27.933Z,5148.00
2018-09-16T09:23:34.432Z,5208.00
2018-09-16T09:24:40.393Z,5260.00
2018-09-16T09:25:47.348Z,5336.00
2018-09-16T09:26:53.820Z,5428.00
2018-09-16T09:27:59.836Z,5528.00
2018-09-16T09:29:06.370Z,5592.00
2018-09-16T09:30:13.269Z,5632.00
2018-09-16T09:31:19.740Z,5672.00
2018-09-16T09:32:26.302Z,5680.00
2018-09-16T09:33:33.213Z,5708.00
2018-09-16T09:34:39.204Z,5768.00
2018-09-16T09:35:45.232Z,5788.00
2018-09-16T09:36:51.696Z,5788.00
2018-09-16T09:37:58.279Z,5808.00
2018-09-16T09:39:05.177Z,5848.00
2018-09-16T09:40:11.178Z,5884.00
2018-09-16T09:41:18.545Z,5864.00
2018-09-16T09:42:24.294Z,5912.00
2018-09-16T09:43:30.713Z,6028.00
2018-09-16T09:44:37.187Z,6076.00
2018-09-16T09:45:44.200Z,6132.00
2018-09-16T09:46:50.207Z,6164.00
2018-09-16T09:47:57.214Z,6192.00
2018-09-16T09:49:03.242Z,6284.00
2018-09-16T09:50:09.766Z,6284.00
2018-09-16T09:51:16.283Z,6256.00
2018-09-16T09:52:22.801Z,6240.00
2018-09-16T09:53:29.863Z,6208.00
2018-09-16T09:54:36.343Z,6212.00
2018-09-16T09:55:42.881Z,6268.00
2018-09-16T09:56:48.913Z,6320.00
2018-09-16T09:57:55.442Z,6356.00
2018-09-16T09:59:02.563Z,6404.00
2018-09-16T10:00:08.519Z,6428.00
2018-09-16T10:01:15.045Z,6448.00
2018-09-16T10:02:22.082Z,6504.00
2018-09-16T10:03:28.641Z,6568.00
2018-09-16T10:04:35.175Z,6596.00
2018-09-16T10:05:41.236Z,6628.00
2018-09-16T10:06:47.786Z,6640.00
2018-09-16T10:07:54.825Z,6500.00
2018-09-16T10:09:00.892Z,6572.00
2018-09-16T10:10:07.956Z,6648.00
2018-09-16T10:11:14.012Z,6636.00
2018-09-16T10:12:20.572Z,6740.00
2018-09-16T10:13:27.148Z,6824.00
2018-09-16T10:14:34.394Z,6812.00
2018-09-16T10:15:40.264Z,6792.00
2018-09-16T10:16:47.323Z,6792.00
2018-09-16T10:17:53.883Z,6848.00
2018-09-16T10:18:59.962Z,6836.00
2018-09-16T10:20:07.031Z,6884.00
2018-09-16T10:21:13.594Z,6932.00
2018-09-16T10:22:19.679Z,6980.00
2018-09-16T10:23:26.239Z,6956.00
2018-09-16T10:24:32.818Z,7028.00
2018-09-16T10:25:39.737Z,7032.00
2018-09-16T10:26:45.978Z,7064.00
2018-09-16T10:27:52.547Z,7116.00
2018-09-16T10:28:59.140Z,7124.00
2018-09-16T10:30:05.727Z,7100.00
2018-09-16T10:31:12.306Z,7044.00
2018-09-16T10:32:18.889Z,6992.00
2018-09-16T10:33:26.479Z,6936.00
2018-09-16T10:34:32.053Z,6916.00
2018-09-16T10:35:38.650Z,6932.00
2018-09-16T10:36:45.244Z,6956.00
2018-09-16T10:37:51.820Z,6972.00
2018-09-16T10:38:58.498Z,7032.00
2018-09-16T10:40:05.017Z,7084.00
2018-09-16T10:41:11.601Z,7156.00
2018-09-16T10:42:18.696Z,7148.00
2018-09-16T10:43:24.805Z,7124.00
2018-09-16T10:44:31.405Z,7108.00
2018-09-16T10:45:37.991Z,7084.00
2018-09-16T10:46:44.619Z,7044.00
2018-09-16T10:47:51.690Z,7052.00
2018-09-16T10:48:57.811Z,7088.00
2018-09-16T10:50:04.424Z,7116.00
2018-09-16T10:51:11.032Z,7160.00
2018-09-16T10:52:18.150Z,7268.00
2018-09-16T10:53:24.749Z,7252.00
2018-09-16T10:54:31.350Z,7304.00
2018-09-16T10:55:37.972Z,7352.00
2018-09-16T10:56:44.102Z,7416.00
2018-09-16T10:57:50.712Z,7496.00
2018-09-16T10:58:57.811Z,7516.00
2018-09-16T11:00:03.940Z,7472.00
2018-09-16T11:01:10.564Z,7416.00
2018-09-16T11:02:17.302Z,7408.00
2018-09-16T11:03:23.818Z,7420.00
2018-09-16T11:04:30.441Z,7480.00
2018-09-16T11:05:38.069Z,7556.00
2018-09-16T11:06:43.709Z,7544.00
2018-09-16T11:07:50.387Z,7372.00
2018-09-16T11:08:56.951Z,7568.00
2018-09-16T11:10:03.588Z,7608.00
2018-09-16T11:11:10.216Z,7624.00
2018-09-16T11:12:16.865Z,7624.00
2018-09-16T11:13:23.495Z,7600.00
2018-09-16T11:14:30.622Z,7600.00
2018-09-16T11:15:36.769Z,7620.00
2018-09-16T11:16:43.412Z,7624.00
2018-09-16T11:17:50.061Z,7620.00
2018-09-16T11:18:56.693Z,7628.00
2018-09-16T11:20:03.352Z,7676.00
2018-09-16T11:21:10.027Z,7708.00
2018-09-16T11:22:17.031Z,7760.00
2018-09-16T11:23:23.538Z,7848.00
2018-09-16T11:24:30.261Z,8032.00
2018-09-16T11:25:37.106Z,8436.00
2018-09-16T11:26:43.993Z,20736.00
2018-09-16T11:27:50.924Z,80608.00
2018-09-16T11:28:58.348Z,100032.00
2018-09-16T11:30:04.914Z,102880.00
2018-09-16T11:31:11.852Z,102720.00
2018-09-16T11:32:18.903Z,94496.00
2018-09-16T11:33:25.958Z,92288.00
2018-09-16T11:34:33.048Z,97952.00
2018-09-16T11:35:40.256Z,104096.00
2018-09-16T11:36:47.299Z,104544.00
2018-09-16T11:37:54.481Z,102208.00
2018-09-16T11:39:01.634Z,98752.00
2018-09-16T11:40:08.824Z,97760.00
2018-09-16T11:41:16.042Z,95584.00
2018-09-16T11:42:23.285Z,92992.00
2018-09-16T11:43:30.652Z,94336.00
2018-09-16T11:44:37.793Z,93248.00
2018-09-16T11:45:45.061Z,92512.00
2018-09-16T11:46:52.835Z,93600.00
2018-09-16T11:48:00.131Z,92832.00
2018-09-16T11:49:07.422Z,90912.00
2018-09-16T11:50:14.728Z,92608.00
2018-09-16T11:51:22.064Z,97440.00
2018-09-16T11:52:28.905Z,91616.00
2018-09-16T11:53:36.768Z,87552.00
2018-09-16T11:54:43.596Z,91200.00
2018-09-16T11:55:50.956Z,90912.00
2018-09-16T11:56:58.828Z,91392.00
2018-09-16T11:58:05.717Z,94528.00
2018-09-16T11:59:13.091Z,96768.00
2018-09-16T12:00:20.505Z,89120.00
2018-09-16T12:01:28.358Z,88256.00
2018-09-16T12:02:35.772Z,92128.00
2018-09-16T12:03:42.703Z,92128.00
2018-09-16T12:04:50.122Z,90688.00
2018-09-16T12:05:57.535Z,88768.00
2018-09-16T12:07:04.980Z,87456.00
2018-09-16T12:08:12.427Z,89408.00
2018-09-16T12:09:19.860Z,93024.00
2018-09-16T12:10:27.816Z,93024.00
2018-09-16T12:11:34.811Z,91744.00
2018-09-16T12:12:42.242Z,93216.00
2018-09-16T12:13:49.723Z,93632.00
2018-09-16T12:14:57.298Z,91104.00
2018-09-16T12:16:05.348Z,92128.00
2018-09-16T12:17:12.204Z,87968.00
2018-09-16T12:18:19.707Z,90784.00
2018-09-16T12:19:27.841Z,90912.00
2018-09-16T12:20:34.732Z,89824.00
2018-09-16T12:21:42.271Z,89152.00
2018-09-16T12:22:49.801Z,86368.00
2018-09-16T12:23:57.364Z,88640.00
2018-09-16T12:25:05.388Z,87360.00
2018-09-16T12:26:12.459Z,89376.00
2018-09-16T12:27:20.017Z,93760.00
2018-09-16T12:28:27.595Z,91200.00
2018-09-16T12:29:35.144Z,93056.00
2018-09-16T12:30:42.732Z,91744.00
2018-09-16T12:31:50.277Z,91104.00
2018-09-16T12:32:57.845Z,88992.00
2018-09-16T12:34:05.925Z,81184.00
2018-09-16T12:35:12.999Z,86976.00
2018-09-16T12:36:20.556Z,85504.00
2018-09-16T12:37:28.147Z,79584.00
2018-09-16T12:38:36.219Z,73280.00
2018-09-16T12:39:43.297Z,85184.00
2018-09-16T12:40:50.866Z,79424.00
2018-09-16T12:41:58.452Z,66048.00
2018-09-16T12:43:06.036Z,78976.00
2018-09-16T12:44:13.606Z,79808.00
2018-09-16T12:45:21.706Z,85792.00
2018-09-16T12:46:29.278Z,87904.00
2018-09-16T12:47:36.850Z,85504.00
2018-09-16T12:48:44.456Z,82624.00
2018-09-16T12:49:52.026Z,82112.00
2018-09-16T12:50:59.129Z,81888.00
2018-09-16T12:52:07.282Z,81568.00
2018-09-16T12:53:14.326Z,74656.00
2018-09-16T12:54:21.921Z,67840.00
2018-09-16T12:55:29.488Z,74400.00
2018-09-16T12:56:37.551Z,77344.00
2018-09-16T12:57:44.604Z,77440.00
2018-09-16T12:58:52.672Z,74464.00
2018-09-16T12:59:59.732Z,57344.00
2018-09-16T13:01:07.245Z,75456.00
2018-09-16T13:02:14.777Z,74304.00
2018-09-16T13:03:22.317Z,71264.00
2018-09-16T13:04:29.940Z,72448.00
2018-09-16T13:05:37.361Z,78752.00
2018-09-16T13:06:44.897Z,89664.00
2018-09-16T13:07:52.411Z,91808.00
2018-09-16T13:08:59.972Z,89440.00
2018-09-16T13:10:07.495Z,86976.00
2018-09-16T13:11:15.522Z,82208.00
2018-09-16T13:12:23.063Z,78528.00
2018-09-16T13:13:30.182Z,77408.00
2018-09-16T13:14:37.679Z,65696.00
2018-09-16T13:15:45.421Z,57184.00
2018-09-16T13:16:53.289Z,56992.00
2018-09-16T13:18:00.372Z,58016.00
2018-09-16T13:19:08.468Z,58720.00
2018-09-16T13:20:15.547Z,58176.00
2018-09-16T13:21:23.650Z,54400.00
2018-09-16T13:22:31.276Z,54432.00
2018-09-16T13:23:38.389Z,48576.00
2018-09-16T13:24:46.016Z,31904.00
2018-09-16T13:25:54.124Z,45856.00
2018-09-16T13:27:01.295Z,44032.00
2018-09-16T13:28:08.898Z,39584.00
2018-09-16T13:29:17.040Z,40768.00
2018-09-16T13:30:24.700Z,39040.00
2018-09-16T13:31:31.832Z,35808.00
2018-09-16T13:32:39.463Z,34752.00
2018-09-16T13:33:47.085Z,33536.00
2018-09-16T13:34:55.721Z,33024.00
2018-09-16T13:36:02.318Z,31776.00
2018-09-16T13:37:10.404Z,31584.00
2018-09-16T13:38:17.523Z,29312.00
2018-09-16T13:39:25.109Z,30624.00
2018-09-16T13:40:32.696Z,29568.00
2018-09-16T13:41:40.273Z,27904.00
2018-09-16T13:42:48.305Z,29152.00
2018-09-16T13:43:55.422Z,28224.00
2018-09-16T13:45:02.979Z,28416.00
2018-09-16T13:46:10.524Z,27808.00
2018-09-16T13:47:18.079Z,28000.00